createdAt,value
2023-11-14T00:01:42.669Z,3.35
2023-11-14T00:04:10.878Z,3.00
2023-11-14T00:06:43.301Z,3.22
2023-11-14T00:09:10.498Z,4.07
2023-11-14T00:11:37.505Z,3.25
2023-11-14T00:14:04.895Z,2.72
2023-11-14T00:16:32.884Z,3.50
2023-11-14T00:18:59.908Z,3.67
2023-11-14T00:21:26.598Z,2.25
2023-11-14T00:23:53.441Z,3.05
2023-11-14T00:26:23.659Z,3.20
2023-11-14T00:28:53.103Z,2.58
2023-11-14T00:31:19.914Z,3.10
2023-11-14T00:33:46.657Z,3.17
2023-11-14T00:36:13.391Z,3.13
2023-11-14T00:38:43.334Z,3.42
2023-11-14T00:41:10.760Z,3.50
2023-11-14T00:43:37.578Z,3.30
2023-11-14T00:46:11.097Z,3.47
2023-11-14T00:48:37.830Z,3.60
2023-11-14T00:51:04.914Z,2.70
2023-11-14T00:53:31.657Z,3.30
2023-11-14T00:55:58.913Z,3.50
2023-11-14T00:58:26.049Z,3.83
2023-11-14T01:00:52.906Z,4.28
2023-11-14T01:03:22.182Z,3.50
2023-11-14T01:05:48.927Z,3.35
2023-11-14T01:08:19.680Z,2.72
2023-11-14T01:10:46.916Z,2.75
2023-11-14T01:13:14.655Z,2.60
2023-11-14T01:15:44.636Z,3.15
2023-11-14T01:18:12.984Z,3.10
2023-11-14T01:20:43.287Z,3.90
2023-11-14T01:23:12.939Z,3.30
2023-11-14T01:25:45.549Z,3.47
2023-11-14T01:28:12.906Z,3.58
2023-11-14T01:30:39.588Z,2.72
2023-11-14T01:33:06.801Z,4.03
2023-11-14T01:35:33.554Z,3.42
2023-11-14T01:38:00.740Z,3.05
2023-11-14T01:40:27.729Z,2.55
2023-11-14T01:43:03.950Z,2.97
2023-11-14T01:45:31.566Z,3.70
2023-11-14T01:48:01.056Z,3.35
2023-11-14T01:50:28.136Z,2.60
2023-11-14T01:53:00.125Z,3.72
2023-11-14T01:55:28.850Z,1.75
2023-11-14T01:57:56.138Z,2.88
2023-11-14T02:00:23.595Z,2.45
2023-11-14T02:02:51.268Z,2.97
2023-11-14T02:05:20.877Z,3.05
2023-11-14T02:07:47.827Z,2.55
2023-11-14T02:10:15.334Z,3.33
2023-11-14T02:12:42.077Z,2.67
2023-11-14T02:15:12.201Z,3.13
2023-11-14T02:17:45.562Z,4.88
2023-11-14T02:20:12.750Z,2.65
2023-11-14T02:22:40.169Z,3.75
2023-11-14T02:25:08.323Z,2.45
2023-11-14T02:27:36.960Z,3.75
2023-11-14T02:30:04.362Z,3.33
2023-11-14T02:32:31.736Z,3.40
2023-11-14T02:34:58.920Z,3.13
2023-11-14T02:37:26.473Z,3.97
2023-11-14T02:39:53.382Z,4.00
2023-11-14T02:42:20.149Z,4.13
2023-11-14T02:44:46.918Z,3.50
2023-11-14T02:47:18.224Z,3.28
2023-11-14T02:50:26.625Z,3.15
2023-11-14T02:52:53.376Z,2.33
2023-11-14T02:55:20.169Z,3.00
2023-11-14T02:57:46.833Z,2.35
2023-11-14T03:00:17.583Z,1.80
2023-11-14T03:02:44.850Z,1.58
2023-11-14T03:05:12.516Z,4.03
2023-11-14T03:07:39.285Z,4.05
2023-11-14T03:10:09.411Z,3.60
2023-11-14T03:12:38.893Z,3.92
2023-11-14T03:15:06.290Z,2.53
2023-11-14T03:17:33.087Z,3.17
2023-11-14T03:19:59.900Z,2.85
2023-11-14T03:22:29.571Z,3.67
2023-11-14T03:24:57.277Z,4.05
2023-11-14T03:27:23.998Z,3.90
2023-11-14T03:29:51.956Z,3.92
2023-11-14T03:32:20.113Z,3.70
2023-11-14T03:34:47.563Z,3.50
2023-11-14T03:37:14.710Z,2.67
2023-11-14T03:39:44.314Z,3.67
2023-11-14T03:42:11.130Z,3.70
2023-11-14T03:44:40.807Z,3.42
2023-11-14T03:47:11.060Z,3.30
2023-11-14T03:49:40.847Z,3.42
2023-11-14T03:52:08.611Z,4.22
2023-11-14T03:54:36.479Z,3.75
2023-11-14T03:57:03.318Z,4.07
2023-11-14T03:59:31.844Z,2.80
2023-11-14T04:02:01.471Z,3.30
2023-11-14T04:04:31.013Z,3.72
2023-11-14T04:06:57.779Z,3.95
2023-11-14T04:09:27.398Z,4.38
2023-11-14T04:11:59.972Z,2.38
2023-11-14T04:14:29.532Z,3.58
2023-11-14T04:17:00.185Z,3.47
2023-11-14T04:19:29.646Z,3.60
2023-11-14T04:22:02.512Z,3.78
2023-11-14T04:24:33.456Z,3.80
2023-11-14T04:27:00.921Z,2.88
2023-11-14T04:29:27.668Z,3.72
2023-11-14T04:31:54.680Z,4.55
2023-11-14T04:34:21.541Z,3.65
2023-11-14T04:36:48.631Z,3.90
2023-11-14T04:39:15.412Z,4.35
2023-11-14T04:41:43.964Z,3.30
2023-11-14T04:44:13.811Z,2.72
2023-11-14T04:46:46.853Z,2.85
2023-11-14T04:49:13.696Z,2.40
2023-11-14T04:51:40.563Z,3.70
2023-11-14T04:54:10.114Z,3.03
2023-11-14T04:56:36.798Z,2.78
2023-11-14T04:59:06.700Z,3.63
2023-11-14T05:01:34.126Z,3.47
2023-11-14T05:04:00.933Z,3.65
2023-11-14T05:06:34.035Z,3.30
2023-11-14T05:09:00.727Z,3.97
2023-11-14T05:11:27.573Z,4.10
2023-11-14T05:13:54.289Z,3.95
2023-11-14T05:16:24.261Z,2.05
2023-11-14T05:18:52.423Z,3.08
2023-11-14T05:21:21.723Z,3.63
2023-11-14T05:23:48.428Z,3.47
2023-11-14T05:26:15.210Z,3.38
2023-11-14T05:28:42.045Z,2.65
2023-11-14T05:31:09.434Z,4.30
2023-11-14T05:33:36.253Z,3.67
2023-11-14T05:36:10.323Z,3.03
2023-11-14T05:38:36.993Z,3.63
2023-11-14T05:41:03.958Z,3.55
2023-11-14T05:43:31.785Z,3.15
2023-11-14T05:45:58.741Z,3.92
2023-11-14T05:48:25.498Z,3.22
2023-11-14T05:50:52.256Z,3.58
2023-11-14T05:53:19.402Z,3.40
2023-11-14T05:55:46.291Z,3.40
2023-11-14T05:58:13.394Z,3.05
2023-11-14T06:00:40.385Z,3.92
2023-11-14T06:03:07.355Z,3.22
2023-11-14T06:05:34.455Z,2.08
2023-11-14T06:08:03.518Z,2.55
2023-11-14T06:10:30.807Z,4.10
2023-11-14T06:13:00.576Z,4.43
2023-11-14T06:15:28.017Z,3.70
2023-11-14T06:17:55.413Z,3.95
2023-11-14T06:20:23.381Z,3.47
2023-11-14T06:22:52.964Z,3.63
2023-11-14T06:25:19.756Z,3.50
2023-11-14T06:27:47.594Z,3.35
2023-11-14T06:30:17.931Z,3.42
2023-11-14T06:32:44.674Z,4.10
2023-11-14T06:35:11.664Z,3.17
2023-11-14T06:37:43.443Z,3.30
2023-11-14T06:40:11.429Z,3.28
2023-11-14T06:42:41.064Z,4.40
2023-11-14T06:45:08.404Z,3.90
2023-11-14T06:47:38.011Z,3.60
2023-11-14T06:50:08.225Z,3.80
2023-11-14T06:52:37.775Z,4.55
2023-11-14T06:55:05.092Z,3.78
2023-11-14T06:57:35.047Z,3.92
2023-11-14T07:00:06.214Z,3.28
2023-11-14T07:02:33.912Z,4.32
2023-11-14T07:05:00.878Z,3.08
2023-11-14T07:07:30.600Z,3.92
2023-11-14T07:10:04.948Z,4.25
2023-11-14T07:12:31.651Z,4.35
2023-11-14T07:14:58.530Z,3.85
2023-11-14T07:17:25.590Z,3.60
2023-11-14T07:19:56.072Z,2.25
2023-11-14T07:22:22.920Z,3.13
2023-11-14T07:24:49.735Z,3.35
2023-11-14T07:27:16.694Z,3.95
2023-11-14T07:29:43.469Z,4.60
2023-11-14T07:32:10.374Z,3.10
2023-11-14T07:34:37.467Z,3.70
2023-11-14T07:37:07.199Z,2.90
2023-11-14T07:39:33.912Z,3.60
2023-11-14T07:42:00.670Z,3.30
2023-11-14T07:44:27.710Z,3.10
2023-11-14T07:47:01.971Z,4.90
2023-11-14T07:49:35.142Z,3.65
2023-11-14T07:52:01.899Z,3.80
2023-11-14T07:54:28.944Z,4.72
2023-11-14T07:56:58.321Z,3.90
2023-11-14T07:59:25.672Z,3.10
2023-11-14T08:01:54.545Z,3.95
2023-11-14T08:04:21.450Z,3.22
2023-11-14T08:06:49.306Z,3.38
2023-11-14T08:09:16.451Z,3.45
2023-11-14T08:11:43.696Z,3.70
2023-11-14T08:14:13.470Z,3.95
2023-11-14T08:16:40.512Z,3.72
2023-11-14T08:19:07.327Z,2.85
2023-11-14T08:21:35.295Z,4.15
2023-11-14T08:24:03.251Z,4.25
2023-11-14T08:26:32.730Z,3.35
2023-11-14T08:29:00.708Z,3.60
2023-11-14T08:31:27.771Z,2.72
2023-11-14T08:33:56.403Z,3.47
2023-11-14T08:36:23.296Z,2.75
2023-11-14T08:38:50.124Z,3.38
2023-11-14T08:41:17.015Z,3.17
2023-11-14T08:43:43.801Z,4.10
2023-11-14T08:46:13.617Z,3.85
2023-11-14T08:48:41.062Z,3.55
2023-11-14T08:51:07.841Z,3.35
2023-11-14T08:53:37.354Z,3.20
2023-11-14T08:56:04.441Z,3.78
2023-11-14T08:58:34.216Z,2.85
2023-11-14T09:01:05.273Z,2.88
2023-11-14T09:03:32.305Z,3.42
2023-11-14T09:06:02.078Z,2.28
2023-11-14T09:08:30.447Z,3.03
2023-11-14T09:11:00.332Z,3.45
2023-11-14T09:13:29.919Z,3.40
2023-11-14T09:15:56.864Z,3.38
2023-11-14T09:18:27.475Z,2.38
2023-11-14T09:20:56.351Z,3.63
2023-11-14T09:23:23.069Z,3.80
2023-11-14T09:25:50.754Z,3.10
2023-11-14T09:28:18.969Z,3.15
2023-11-14T09:30:47.995Z,3.78
2023-11-14T09:33:14.925Z,2.35
2023-11-14T09:35:44.769Z,3.30
2023-11-14T09:38:14.917Z,2.83
2023-11-14T09:40:47.586Z,3.35
2023-11-14T09:43:14.905Z,3.35
2023-11-14T09:45:47.701Z,3.35
2023-11-14T09:48:15.200Z,3.47
2023-11-14T09:50:45.014Z,2.92
2023-11-14T09:53:15.407Z,4.03
2023-11-14T09:55:45.609Z,3.30
2023-11-14T09:58:15.118Z,2.95
2023-11-14T10:00:44.465Z,3.20
2023-11-14T10:03:11.310Z,2.65
2023-11-14T10:05:45.989Z,2.90
2023-11-14T10:08:19.672Z,2.88
2023-11-14T10:11:12.266Z,3.33
2023-11-14T10:13:40.990Z,3.22
2023-11-14T10:16:22.155Z,2.67
2023-11-14T10:18:52.196Z,3.08
2023-11-14T10:21:32.793Z,3.47
2023-11-14T10:24:01.933Z,3.42
2023-11-14T10:26:28.838Z,3.40
2023-11-14T10:29:03.494Z,3.08
2023-11-14T10:31:41.374Z,2.45
2023-11-14T10:34:28.098Z,3.40
2023-11-14T10:36:58.390Z,3.22
2023-11-14T10:39:26.420Z,2.92
2023-11-14T10:41:54.191Z,3.60
2023-11-14T10:44:23.208Z,3.40
2023-11-14T10:47:04.427Z,2.90
2023-11-14T10:49:46.705Z,3.15
2023-11-14T10:52:18.428Z,3.50
2023-11-14T10:54:46.585Z,3.22
2023-11-14T10:57:24.017Z,3.38
2023-11-14T10:59:53.186Z,4.60
2023-11-14T11:02:20.232Z,3.30
2023-11-14T11:04:47.587Z,3.67
2023-11-14T11:07:14.461Z,2.47
2023-11-14T11:09:41.311Z,3.50
2023-11-14T11:12:10.517Z,3.20
2023-11-14T11:14:37.366Z,3.75
2023-11-14T11:17:04.717Z,3.30
2023-11-14T11:19:31.855Z,3.65
2023-11-14T11:22:04.612Z,2.92
2023-11-14T11:24:40.770Z,3.40
2023-11-14T11:27:18.824Z,3.22
2023-11-14T11:30:01.014Z,3.30
2023-11-14T11:32:37.246Z,2.35
2023-11-14T11:35:23.886Z,2.05
2023-11-14T11:37:59.751Z,2.30
2023-11-14T11:40:29.652Z,2.67
2023-11-14T11:43:16.445Z,2.90
2023-11-14T11:45:46.389Z,2.40
2023-11-14T11:48:25.959Z,2.72
2023-11-14T11:50:54.259Z,2.60
2023-11-14T11:53:41.436Z,2.78
2023-11-14T11:56:12.513Z,2.78
2023-11-14T11:58:50.196Z,3.10
2023-11-14T12:01:17.279Z,2.13
2023-11-14T12:03:44.331Z,2.58
2023-11-14T12:06:16.750Z,2.08
2023-11-14T12:08:43.651Z,2.03
2023-11-14T12:11:16.182Z,1.92
2023-11-14T12:13:46.623Z,2.63
2023-11-14T12:16:14.903Z,1.90
2023-11-14T12:18:42.331Z,2.03
2023-11-14T12:21:09.644Z,1.83
2023-11-14T12:23:36.668Z,1.70
2023-11-14T12:26:03.799Z,2.20
2023-11-14T12:28:40.601Z,1.77
2023-11-14T12:31:09.769Z,2.10
2023-11-14T12:33:51.749Z,1.95
2023-11-14T12:36:26.156Z,2.13
2023-11-14T12:38:54.055Z,2.22
2023-11-14T12:41:26.477Z,2.33
2023-11-14T12:44:05.772Z,2.58
2023-11-14T12:46:36.477Z,2.20
2023-11-14T12:49:17.819Z,2.05
2023-11-14T12:51:53.271Z,2.05
2023-11-14T12:54:21.921Z,1.77
2023-11-14T12:56:50.981Z,1.98
2023-11-14T12:59:19.117Z,2.33
2023-11-14T13:01:47.324Z,2.30
2023-11-14T13:04:16.685Z,2.97
2023-11-14T13:06:45.915Z,2.63
2023-11-14T13:09:14.446Z,1.67
2023-11-14T13:11:41.281Z,2.47
2023-11-14T13:14:08.405Z,2.38
2023-11-14T13:16:38.091Z,2.08
2023-11-14T13:19:05.127Z,2.15
2023-11-14T13:21:31.988Z,1.92
2023-11-14T13:23:58.719Z,2.60
2023-11-14T13:26:28.718Z,1.90
2023-11-14T13:28:58.596Z,2.47
2023-11-14T13:31:28.319Z,2.30
2023-11-14T13:33:55.200Z,1.80
2023-11-14T13:36:24.857Z,2.53
2023-11-14T13:38:52.234Z,2.22
2023-11-14T13:41:19.100Z,2.40
2023-11-14T13:43:46.140Z,1.92
2023-11-14T13:46:23.425Z,2.75
2023-11-14T13:48:55.687Z,2.83
2023-11-14T13:51:22.891Z,3.53
2023-11-14T13:53:51.498Z,2.35
2023-11-14T13:56:21.293Z,2.35
2023-11-14T13:58:48.501Z,2.33
2023-11-14T14:01:17.743Z,1.98
2023-11-14T14:03:45.093Z,1.92
2023-11-14T14:06:12.036Z,2.20
2023-11-14T14:08:41.617Z,1.60
2023-11-14T14:11:10.235Z,1.42
2023-11-14T14:13:41.018Z,1.63
2023-11-14T14:16:10.440Z,2.10
2023-11-14T14:18:41.544Z,2.17
2023-11-14T14:21:08.918Z,1.90
2023-11-14T14:23:35.880Z,2.08
2023-11-14T14:26:05.964Z,2.05
2023-11-14T14:28:35.926Z,1.60
2023-11-14T14:31:06.184Z,2.05
2023-11-14T14:33:33.699Z,1.27
2023-11-14T14:36:00.872Z,1.83
2023-11-14T14:38:31.238Z,1.30
2023-11-14T14:40:58.206Z,2.13
2023-11-14T14:43:25.178Z,1.58
2023-11-14T14:45:55.873Z,1.90
2023-11-14T14:48:23.620Z,2.00
2023-11-14T14:50:53.562Z,1.80
2023-11-14T14:53:24.943Z,1.90
2023-11-14T14:55:52.887Z,2.33
2023-11-14T14:58:21.570Z,2.40
2023-11-14T15:00:55.336Z,3.20
2023-11-14T15:03:24.418Z,1.98
2023-11-14T15:05:51.949Z,2.70
2023-11-14T15:08:19.951Z,3.33
2023-11-14T15:10:47.547Z,1.52
2023-11-14T15:13:14.790Z,2.00
2023-11-14T15:15:42.084Z,2.20
2023-11-14T15:18:08.895Z,2.22
2023-11-14T15:20:35.744Z,3.00
2023-11-14T15:23:04.564Z,2.97
2023-11-14T15:25:34.098Z,3.22
2023-11-14T15:28:01.125Z,2.45
2023-11-14T15:30:27.888Z,3.28
2023-11-14T15:32:55.086Z,2.83
2023-11-14T15:35:22.043Z,2.45
2023-11-14T15:37:51.575Z,2.70
2023-11-14T15:40:19.741Z,3.00
2023-11-14T15:42:47.360Z,3.58
2023-11-14T15:45:15.978Z,3.88
2023-11-14T15:47:45.135Z,2.90
2023-11-14T15:50:12.127Z,2.88
2023-11-14T15:52:38.911Z,3.30
2023-11-14T15:55:06.631Z,3.38
2023-11-14T15:57:34.008Z,2.60
2023-11-14T16:00:03.916Z,2.45
2023-11-14T16:02:32.426Z,2.72
2023-11-14T16:04:59.501Z,2.70
2023-11-14T16:07:26.735Z,2.50
2023-11-14T16:09:53.523Z,2.72
2023-11-14T16:12:20.298Z,2.65
2023-11-14T16:14:47.085Z,2.72
2023-11-14T16:17:16.821Z,3.28
2023-11-14T16:19:43.570Z,3.47
2023-11-14T16:22:17.622Z,5.55
2023-11-14T16:24:44.743Z,6.78
2023-11-14T16:27:11.501Z,9.68
2023-11-14T16:29:38.565Z,10.10
2023-11-14T16:32:08.294Z,11.52
2023-11-14T16:34:37.741Z,7.65
2023-11-14T16:37:06.096Z,4.70
2023-11-14T16:39:38.728Z,5.88
2023-11-14T16:42:10.355Z,6.32
2023-11-14T16:44:37.200Z,7.03
2023-11-14T16:47:07.327Z,6.50
2023-11-14T16:49:35.149Z,7.35
2023-11-14T16:52:02.167Z,5.75
2023-11-14T16:54:29.389Z,4.60
2023-11-14T16:56:56.099Z,4.00
2023-11-14T16:59:22.964Z,4.38
2023-11-14T17:01:50.278Z,3.83
2023-11-14T17:04:17.234Z,4.50
2023-11-14T17:06:44.094Z,4.97
2023-11-14T17:09:11.577Z,7.60
2023-11-14T17:11:38.792Z,8.23
2023-11-14T17:14:05.914Z,8.60
2023-11-14T17:16:34.354Z,8.52
2023-11-14T17:19:01.203Z,7.30
2023-11-14T17:21:30.494Z,9.98
2023-11-14T17:23:57.299Z,8.68
2023-11-14T17:26:24.043Z,8.45
2023-11-14T17:28:50.881Z,7.10
2023-11-14T17:31:17.941Z,7.57
2023-11-14T17:33:44.960Z,6.40
2023-11-14T17:36:11.789Z,6.90
2023-11-14T17:38:40.610Z,6.50
2023-11-14T17:41:07.477Z,6.35
2023-11-14T17:43:34.591Z,3.15
2023-11-14T17:46:01.448Z,3.63
2023-11-14T17:48:28.793Z,3.03
2023-11-14T17:50:58.434Z,3.47
2023-11-14T17:53:28.011Z,3.75
2023-11-14T17:55:54.770Z,3.35
2023-11-14T17:58:24.048Z,4.00
2023-11-14T18:00:50.903Z,3.38
2023-11-14T18:03:18.929Z,3.42
2023-11-14T18:05:46.299Z,3.80
2023-11-14T18:08:14.247Z,4.35
2023-11-14T18:10:41.246Z,4.47
2023-11-14T18:13:08.145Z,4.15
2023-11-14T18:15:35.759Z,3.67
2023-11-14T18:18:03.706Z,3.45
2023-11-14T18:20:30.880Z,3.88
2023-11-14T18:22:58.454Z,3.88
2023-11-14T18:25:25.559Z,4.28
2023-11-14T18:27:52.896Z,3.90
2023-11-14T18:30:20.542Z,4.35
2023-11-14T18:32:48.163Z,4.70
2023-11-14T18:35:17.952Z,4.30
2023-11-14T18:37:45.447Z,5.32
2023-11-14T18:40:14.516Z,4.75
2023-11-14T18:42:43.636Z,5.32
2023-11-14T18:45:12.650Z,5.30
2023-11-14T18:47:44.415Z,4.97
2023-11-14T18:50:11.471Z,4.78
2023-11-14T18:52:40.422Z,4.90
2023-11-14T18:55:09.312Z,5.03
2023-11-14T18:57:36.604Z,5.13
2023-11-14T19:00:05.745Z,5.45
2023-11-14T19:02:34.138Z,5.60
2023-11-14T19:05:01.166Z,5.10
2023-11-14T19:07:28.740Z,5.15
2023-11-14T19:09:55.680Z,5.53
2023-11-14T19:12:24.708Z,5.75
2023-11-14T19:14:52.819Z,5.88
2023-11-14T19:17:24.471Z,5.60
2023-11-14T19:19:51.509Z,5.47
2023-11-14T19:22:52.345Z,5.45
2023-11-14T19:27:39.113Z,5.28
2023-11-14T19:30:06.786Z,4.03
2023-11-14T19:32:33.996Z,4.10
2023-11-14T19:35:00.866Z,4.90
2023-11-14T19:37:28.460Z,5.05
2023-11-14T19:39:57.529Z,5.45
2023-11-14T19:42:24.704Z,4.88
2023-11-14T19:44:51.438Z,4.97
2023-11-14T19:47:18.235Z,4.40
2023-11-14T19:49:46.195Z,5.07
2023-11-14T19:52:16.381Z,5.13
2023-11-14T19:54:45.333Z,5.28
2023-11-14T19:57:13.952Z,5.47
2023-11-14T19:59:41.024Z,5.25
2023-11-14T20:02:08.124Z,5.68
2023-11-14T20:04:35.107Z,5.63
2023-11-14T20:07:01.947Z,5.50
2023-11-14T20:09:30.052Z,4.72
2023-11-14T20:11:58.218Z,4.65
2023-11-14T20:14:25.377Z,4.38
2023-11-14T20:16:52.236Z,4.70
2023-11-14T20:19:19.724Z,3.95
2023-11-14T20:21:46.843Z,3.78
2023-11-14T20:24:13.630Z,3.20
2023-11-14T20:26:43.533Z,3.25
2023-11-14T20:29:13.285Z,3.13
2023-11-14T20:31:47.034Z,3.38
2023-11-14T20:34:13.864Z,3.22
2023-11-14T20:36:40.637Z,3.03
2023-11-14T20:39:15.913Z,2.72
2023-11-14T20:41:44.859Z,2.90
2023-11-14T20:44:12.188Z,3.33
2023-11-14T20:46:39.251Z,3.30
2023-11-14T20:49:06.223Z,3.67
2023-11-14T20:51:32.983Z,4.70
2023-11-14T20:54:00.074Z,4.55
2023-11-14T20:56:27.335Z,3.50
2023-11-14T20:58:54.742Z,2.10
2023-11-14T21:01:22.924Z,2.75
2023-11-14T21:03:50.231Z,3.45
2023-11-14T21:06:19.886Z,3.47
2023-11-14T21:08:47.301Z,3.47
2023-11-14T21:11:14.189Z,4.10
2023-11-14T21:13:41.303Z,4.53
2023-11-14T21:16:10.750Z,4.20
2023-11-14T21:18:38.595Z,4.50
2023-11-14T21:21:09.035Z,4.75
2023-11-14T21:23:40.264Z,3.70
2023-11-14T21:26:10.956Z,4.35
2023-11-14T21:28:40.708Z,4.03
2023-11-14T21:31:10.580Z,4.70
2023-11-14T21:33:37.952Z,4.80
2023-11-14T21:36:05.646Z,4.82
2023-11-14T21:38:35.705Z,3.13
2023-11-14T21:41:04.438Z,5.38
2023-11-14T21:43:31.277Z,5.00
2023-11-14T21:46:00.818Z,3.95
2023-11-14T21:48:27.646Z,3.78
2023-11-14T21:50:57.222Z,5.05
2023-11-14T21:53:24.223Z,4.68
2023-11-14T21:55:51.032Z,5.40
2023-11-14T21:58:18.022Z,4.13
2023-11-14T22:00:45.312Z,5.22
2023-11-14T22:03:12.937Z,5.25
2023-11-14T22:05:40.058Z,3.67
2023-11-14T22:08:06.948Z,4.65
2023-11-14T22:10:33.699Z,4.93
2023-11-14T22:13:00.914Z,3.63
2023-11-14T22:15:27.716Z,4.13
2023-11-14T22:17:55.391Z,4.50
2023-11-14T22:20:22.639Z,4.43
2023-11-14T22:22:49.450Z,3.55
2023-11-14T22:25:16.743Z,4.18
2023-11-14T22:27:43.563Z,4.38
2023-11-14T22:30:12.721Z,4.25
2023-11-14T22:32:42.242Z,4.78
2023-11-14T22:35:10.065Z,3.05
2023-11-14T22:37:36.876Z,4.28
2023-11-14T22:40:07.569Z,4.30
2023-11-14T22:42:34.810Z,5.00
2023-11-14T22:45:05.006Z,4.47
2023-11-14T22:47:41.117Z,6.82
2023-11-14T22:50:08.620Z,5.75
2023-11-14T22:52:35.521Z,5.72
2023-11-14T22:55:04.474Z,5.35
2023-11-14T22:57:31.862Z,5.47
2023-11-14T23:00:01.152Z,5.68
2023-11-14T23:02:28.481Z,5.22
2023-11-14T23:04:57.287Z,5.65
2023-11-14T23:07:24.039Z,5.75
2023-11-14T23:09:50.924Z,5.85
2023-11-14T23:12:17.660Z,6.28
2023-11-14T23:14:45.802Z,6.95
2023-11-14T23:17:12.819Z,6.18
2023-11-14T23:19:39.640Z,6.57
2023-11-14T23:22:12.152Z,5.38
2023-11-14T23:24:44.813Z,6.00
2023-11-14T23:27:11.877Z,6.00
2023-11-14T23:29:38.692Z,6.57
2023-11-14T23:32:06.042Z,5.22
2023-11-14T23:34:32.825Z,5.63
2023-11-14T23:36:59.690Z,4.68
2023-11-14T23:39:27.604Z,6.15
2023-11-14T23:41:54.917Z,3.75
2023-11-14T23:44:21.647Z,5.88
2023-11-14T23:46:48.747Z,6.43
2023-11-14T23:49:17.042Z,4.70
2023-11-14T23:51:46.789Z,6.50
2023-11-14T23:54:16.779Z,6.28
2023-11-14T23:56:49.294Z,6.13
2023-11-14T23:59:18.926Z,6.50
